Time;durP1;ratioP1;P1;durP2;ratioP2;P2;SDS_P1;SDS_P2;PMS_P1;PMS_P2;Temp;Humidity;BMP_temperature;BMP_pressure;BME280_temperature;BME280_humidity;BME280_pressure;Samples;Min_cycle;Max_cycle;Signal;HPM_P1;HPM_P2
2022/04/05 00:01:33;;;;;;;;;3.75;3.00;;;;;17.77;30.96;100891.03;4974415;28;45875;-65
2022/04/05 00:03:58;;;;;;;;;3.25;2.25;;;;;17.74;30.99;100884.19;4975659;28;45352;-64
2022/04/05 00:06:24;;;;;;;;;2.00;2.00;;;;;17.75;30.90;100893.72;4975697;28;45791;-65
2022/04/05 00:08:49;;;;;;;;;3.25;3.00;;;;;17.75;30.90;100887.63;4975828;28;45509;-65
2022/04/05 00:11:15;;;;;;;;;3.50;3.50;;;;;17.76;31.24;100889.34;4974219;28;45366;-65
2022/04/05 00:13:40;;;;;;;;;3.50;2.75;;;;;17.77;30.91;100885.81;4975507;28;45336;-62
2022/04/05 00:16:06;;;;;;;;;4.00;4.00;;;;;17.76;30.95;100886.72;4975684;28;45337;-64
2022/04/05 00:18:31;;;;;;;;;3.50;3.50;;;;;17.76;30.93;100881.47;4975322;28;45655;-63
2022/04/05 00:20:56;;;;;;;;;3.75;2.00;;;;;17.75;30.99;100887.63;4975223;28;45368;-63
2022/04/05 00:23:22;;;;;;;;;3.75;2.00;;;;;17.75;31.05;100879.78;4975236;28;45277;-64
2022/04/05 00:25:47;;;;;;;;;2.75;2.75;;;;;17.75;31.14;100879.78;4975364;28;45295;-63
2022/04/05 00:28:12;;;;;;;;;1.00;1.00;;;;;17.75;31.10;100877.16;4975838;28;45545;-64
2022/04/05 00:30:38;;;;;;;;;4.25;3.00;;;;;17.75;30.93;100885.00;4975182;28;45297;-65
2022/04/05 00:33:03;;;;;;;;;4.25;2.00;;;;;17.76;31.27;100884.09;4975082;28;45394;-64
2022/04/05 00:35:29;;;;;;;;;2.25;2.00;;;;;17.76;31.13;100889.34;4975517;28;45248;-63
2022/04/05 00:37:54;;;;;;;;;3.25;3.25;;;;;17.76;31.06;100891.97;4975343;28;45509;-63
2022/04/05 00:40:20;;;;;;;;;2.25;2.25;;;;;17.75;31.17;100892.88;4974869;28;45551;-65
2022/04/05 00:42:45;;;;;;;;;2.75;2.75;;;;;17.74;31.73;100885.94;4975241;28;45379;-64
2022/04/05 00:45:11;;;;;;;;;3.00;3.00;;;;;17.73;31.41;100876.34;4975138;28;45314;-65
2022/04/05 00:47:37;;;;;;;;;3.00;3.00;;;;;17.74;31.39;100880.69;4975200;28;45532;-66
2022/04/05 00:50:05;;;;;;;;;3.50;2.00;;;;;17.75;31.25;100882.38;4975042;28;45372;-65
2022/04/05 00:52:30;;;;;;;;;3.00;3.00;;;;;17.75;31.23;100882.38;4974982;28;45823;-66
2022/04/05 00:54:58;;;;;;;;;3.75;3.50;;;;;17.75;31.40;100877.97;4973624;28;45261;-65
2022/04/05 00:57:25;;;;;;;;;3.00;3.00;;;;;17.76;31.37;100873.59;4975421;28;45389;-65
2022/04/05 00:59:57;;;;;;;;;6.00;3.50;;;;;17.75;31.30;100877.16;4974835;28;45426;-65
2022/04/05 01:02:26;;;;;;;;;1.75;1.75;;;;;17.73;31.46;100858.88;4974767;27;45347;-65
2022/04/05 01:04:52;;;;;;;;;4.00;2.50;;;;;17.75;31.45;100877.16;4974884;28;45418;-65
2022/04/05 01:07:19;;;;;;;;;3.25;2.00;;;;;17.74;31.44;100875.44;4975292;28;45390;-65
2022/04/05 01:09:45;;;;;;;;;2.75;2.75;;;;;17.75;31.48;100867.50;4974943;28;46366;-65
2022/04/05 01:12:13;;;;;;;;;3.00;3.00;;;;;17.75;31.65;100864.03;4974805;28;45233;-65
2022/04/05 01:14:39;;;;;;;;;2.00;2.00;;;;;17.74;31.51;100864.94;4974501;28;45234;-65
2022/04/05 01:17:06;;;;;;;;;3.00;3.00;;;;;17.75;31.33;100861.41;4975049;28;45500;-65
2022/04/05 01:19:32;;;;;;;;;3.00;2.00;;;;;17.74;31.44;100865.81;4973265;28;48339;-65
2022/04/05 01:21:58;;;;;;;;;2.50;2.50;;;;;17.75;31.55;100862.25;4974660;28;45366;-63
2022/04/05 01:24:24;;;;;;;;;1.75;1.75;;;;;17.75;31.57;100857.00;4973654;28;45406;-63
2022/04/05 01:26:51;;;;;;;;;3.25;3.25;;;;;17.76;31.63;100857.88;4975514;28;45435;-62
2022/04/05 01:29:19;;;;;;;;;3.00;2.00;;;;;17.75;31.45;100850.94;4973532;28;46438;-64
2022/04/05 01:31:47;;;;;;;;;3.00;1.75;;;;;17.75;31.60;100853.56;4974852;28;45492;-64
2022/04/05 01:34:15;;;;;;;;;2.50;2.00;;;;;17.75;31.55;100849.16;4974739;28;45375;-63
2022/04/05 01:36:43;;;;;;;;;2.75;2.00;;;;;17.74;31.62;100838.75;4973317;28;45670;-63
2022/04/05 01:39:09;;;;;;;;;2.50;2.50;;;;;17.74;31.69;100846.59;4973331;28;45407;-64
2022/04/05 01:41:35;;;;;;;;;1.25;1.25;;;;;17.75;31.58;100848.31;4974404;28;45905;-61
2022/04/05 01:44:01;;;;;;;;;2.00;2.00;;;;;17.74;31.75;100842.22;4974629;28;45384;-62
2022/04/05 01:46:26;;;;;;;;;1.50;1.50;;;;;17.75;31.82;100840.44;4974733;28;45375;-62
2022/04/05 01:48:52;;;;;;;;;2.00;2.00;;;;;17.75;31.68;100838.66;4974224;28;45424;-64
2022/04/05 01:51:18;;;;;;;;;3.00;3.00;;;;;17.75;31.71;100840.44;4974508;28;45756;-66
2022/04/05 01:53:43;;;;;;;;;2.50;2.00;;;;;17.73;31.95;100837.91;4974307;28;45318;-65
2022/04/05 01:56:09;;;;;;;;;2.00;2.00;;;;;17.75;31.89;100836.03;4974557;28;45616;-65
2022/04/05 01:58:37;;;;;;;;;3.00;2.25;;;;;17.75;31.78;100832.59;4973938;28;46313;-65
2022/04/05 02:01:03;;;;;;;;;2.75;2.25;;;;;17.74;31.81;100830.88;4974175;28;45248;-62
2022/04/05 02:03:29;;;;;;;;;2.00;2.00;;;;;17.75;31.89;100835.22;4972906;28;45325;-63
2022/04/05 02:05:55;;;;;;;;;2.00;2.00;;;;;17.74;32.00;100833.50;4974273;28;45413;-65
2022/04/05 02:08:20;;;;;;;;;1.00;1.00;;;;;17.76;31.93;100831.66;4974452;28;46261;-63
2022/04/05 02:10:45;;;;;;;;;1.50;1.50;;;;;17.74;32.10;100833.50;4974003;28;45380;-64
2022/04/05 02:13:11;;;;;;;;;2.50;2.00;;;;;17.75;32.05;100829.97;4974196;28;45464;-64
2022/04/05 02:15:36;;;;;;;;;2.25;2.00;;;;;17.75;32.06;100832.59;4974238;28;45564;-64
2022/04/05 02:18:02;;;;;;;;;2.00;2.00;;;;;17.75;32.08;100829.97;4973667;28;46147;-65
2022/04/05 02:20:27;;;;;;;;;2.00;2.00;;;;;17.76;32.04;100836.91;4973855;28;45451;-65
2022/04/05 02:22:52;;;;;;;;;2.00;2.00;;;;;17.76;32.06;100829.03;4974434;28;45355;-65
2022/04/05 02:25:18;;;;;;;;;2.50;2.50;;;;;17.76;31.93;100831.66;4973489;28;45390;-66
2022/04/05 02:27:43;;;;;;;;;1.75;1.75;;;;;17.75;31.88;100833.41;4973740;28;45438;-66
2022/04/05 02:30:10;;;;;;;;;3.00;3.00;;;;;17.75;32.10;100829.97;4973829;28;45413;-66
2022/04/05 02:32:36;;;;;;;;;3.00;2.00;;;;;17.75;32.10;100829.97;4973762;28;45329;-66
2022/04/05 02:35:03;;;;;;;;;4.50;2.75;;;;;17.75;32.26;100828.19;4973946;28;45263;-66
2022/04/05 02:37:28;;;;;;;;;3.00;1.75;;;;;17.75;32.14;100825.56;4972310;28;47691;-64
2022/04/05 02:39:53;;;;;;;;;2.75;1.50;;;;;17.73;32.29;100827.41;4974058;28;45389;-65
2022/04/05 02:42:19;;;;;;;;;2.25;1.75;;;;;17.74;32.30;100823.88;4974004;28;45369;-66
2022/04/05 02:44:44;;;;;;;;;2.50;2.50;;;;;17.75;32.37;100820.31;4973890;28;45554;-65
2022/04/05 02:47:10;;;;;;;;;1.00;1.00;;;;;17.75;32.26;100815.06;4973490;28;46260;-65
2022/04/05 02:49:36;;;;;;;;;2.00;2.00;;;;;17.75;32.32;100819.47;4973397;28;45332;-65
2022/04/05 02:52:02;;;;;;;;;2.00;0.75;;;;;17.76;32.43;100815.94;4973564;28;45445;-66
2022/04/05 02:54:27;;;;;;;;;1.25;1.25;;;;;17.74;32.23;100808.16;4973815;28;45524;-65
2022/04/05 02:56:52;;;;;;;;;1.00;1.00;;;;;17.74;32.49;100809.91;4972101;28;45441;-63
2022/04/05 02:59:18;;;;;;;;;2.25;1.00;;;;;17.76;32.37;100815.94;4973437;28;45379;-65
2022/04/05 03:01:43;;;;;;;;;2.00;2.00;;;;;17.74;32.51;100808.16;4973537;28;45221;-65
2022/04/05 03:04:08;;;;;;;;;1.00;1.00;;;;;17.76;32.46;100805.44;4973536;28;45303;-66
2022/04/05 03:06:34;;;;;;;;;3.50;1.00;;;;;17.76;32.41;100810.69;4973346;28;45958;-66
2022/04/05 03:09:00;;;;;;;;;5.00;1.75;;;;;17.75;32.53;100809.81;4973238;28;45374;-66
2022/04/05 03:11:26;;;;;;;;;2.00;2.00;;;;;17.75;32.64;100809.81;4973304;28;45269;-61
2022/04/05 03:13:52;;;;;;;;;1.00;1.00;;;;;17.75;32.57;100801.13;4973775;28;45505;-66
2022/04/05 03:16:17;;;;;;;;;2.00;2.00;;;;;17.75;32.66;100799.34;4972981;28;46567;-66
2022/04/05 03:18:46;;;;;;;;;1.00;1.00;;;;;17.75;32.62;100796.72;4971563;28;45893;-64
2022/04/05 03:21:12;;;;;;;;;1.00;1.00;;;;;17.74;32.67;100802.91;4973114;28;45284;-65
2022/04/05 03:23:38;;;;;;;;;2.00;2.00;;;;;17.75;32.63;100803.75;4973252;28;45364;-66
2022/04/05 03:26:04;;;;;;;;;1.00;1.00;;;;;17.75;32.58;100801.97;4971545;28;48513;-63
2022/04/05 03:28:29;;;;;;;;;0.75;0.75;;;;;17.74;32.65;100796.78;4972870;28;45415;-63
2022/04/05 03:30:54;;;;;;;;;1.00;1.00;;;;;17.74;32.71;100794.19;4972007;28;45422;-65
2022/04/05 03:33:20;;;;;;;;;1.75;1.75;;;;;17.74;32.92;100794.19;4973142;28;45368;-66
2022/04/05 03:35:46;;;;;;;;;2.00;2.00;;;;;17.76;32.74;100789.72;4973100;28;45330;-66
2022/04/05 03:38:11;;;;;;;;;1.75;1.00;;;;;17.75;32.75;100793.25;4975974;28;45264;-65
2022/04/05 03:40:37;;;;;;;;;2.75;2.75;;;;;17.75;32.82;100788.03;4974843;28;45399;-66
2022/04/05 03:43:03;;;;;;;;;1.00;1.00;;;;;17.75;32.78;100782.78;4976216;28;45266;-65
2022/04/05 03:45:28;;;;;;;;;2.00;1.00;;;;;17.76;32.97;100787.09;4975946;28;46023;-65
2022/04/05 03:47:53;;;;;;;;;1.75;1.75;;;;;17.75;32.87;100788.03;4976020;28;45446;-65
2022/04/05 03:50:19;;;;;;;;;2.50;1.50;;;;;17.74;32.85;100789.81;4975989;28;45240;-65
2022/04/05 03:52:44;;;;;;;;;3.00;2.00;;;;;17.75;33.00;100786.22;4976164;28;45185;-65
2022/04/05 03:55:11;;;;;;;;;2.50;1.00;;;;;17.75;32.98;100788.03;4975736;28;46336;-65
2022/04/05 03:57:37;;;;;;;;;0.00;0.00;;;;;17.75;32.99;100782.78;4975722;28;45862;-65
2022/04/05 04:00:03;;;;;;;;;0.00;0.00;;;;;17.75;33.03;100777.53;4974676;28;45390;-64
2022/04/05 04:02:34;;;;;;;;;3.00;2.00;;;;;17.76;33.18;100779.25;4975743;28;45525;-65
2022/04/05 04:04:59;;;;;;;;;2.25;1.00;;;;;17.76;33.25;100779.25;4975425;28;47368;-65
2022/04/05 04:07:25;;;;;;;;;2.00;2.00;;;;;17.75;33.09;100781.00;4975708;28;45471;-65
2022/04/05 04:09:51;;;;;;;;;4.50;2.75;;;;;17.75;33.05;100781.00;4975786;28;45456;-66
2022/04/05 04:12:17;;;;;;;;;1.00;1.00;;;;;17.77;33.24;100784.41;4975888;28;45358;-66
2022/04/05 04:14:42;;;;;;;;;2.00;2.00;;;;;17.75;33.35;100774.91;4975438;28;46274;-65
2022/04/05 04:17:07;;;;;;;;;1.50;1.50;;;;;17.74;33.11;100778.44;4975261;28;45276;-66
2022/04/05 04:19:34;;;;;;;;;1.75;1.75;;;;;17.75;33.19;100782.78;4975334;28;45445;-65
2022/04/05 04:21:59;;;;;;;;;0.50;0.50;;;;;17.75;33.31;100785.41;4975793;28;45535;-65
2022/04/05 04:24:25;;;;;;;;;1.00;1.00;;;;;17.75;33.22;100777.53;4974212;28;48254;-65
2022/04/05 04:26:50;;;;;;;;;1.00;1.00;;;;;17.75;33.38;100767.88;4975310;28;45362;-65
2022/04/05 04:29:15;;;;;;;;;0.75;0.75;;;;;17.76;33.37;100774.00;4975520;28;45273;-65
2022/04/05 04:31:41;;;;;;;;;1.75;1.75;;;;;17.75;33.33;100767.88;4975483;28;45597;-65
2022/04/05 04:34:06;;;;;;;;;2.00;2.00;;;;;17.75;33.50;100770.50;4975115;28;45914;-66
2022/04/05 04:36:32;;;;;;;;;1.75;1.00;;;;;17.76;33.56;100771.38;4975263;28;45310;-66
2022/04/05 04:38:57;;;;;;;;;1.25;1.25;;;;;17.76;33.56;100768.75;4975529;28;45338;-65
2022/04/05 04:41:23;;;;;;;;;1.00;1.00;;;;;17.74;33.44;100766.22;4975682;28;45544;-65
2022/04/05 04:43:50;;;;;;;;;0.25;0.00;;;;;17.76;33.41;100774.00;4973807;28;46378;-65
2022/04/05 04:46:15;;;;;;;;;1.00;1.00;;;;;17.76;33.76;100774.00;4975004;28;45513;-65
2022/04/05 04:48:41;;;;;;;;;1.00;1.00;;;;;17.75;33.52;100767.88;4974375;28;45459;-66
2022/04/05 04:51:06;;;;;;;;;2.00;1.00;;;;;17.76;33.69;100774.00;4974140;28;45605;-65
2022/04/05 04:53:32;;;;;;;;;1.00;1.00;;;;;17.76;33.64;100769.59;4974956;28;46228;-65
2022/04/05 04:55:57;;;;;;;;;1.25;1.25;;;;;17.76;33.78;100768.75;4975354;28;45407;-65
2022/04/05 04:58:22;;;;;;;;;1.75;1.75;;;;;17.76;33.69;100763.50;4975091;28;45460;-65
2022/04/05 05:00:48;;;;;;;;;1.00;1.00;;;;;17.75;33.76;100764.44;4975441;28;45363;-66
2022/04/05 05:03:18;;;;;;;;;1.00;1.00;;;;;17.76;33.80;100768.75;4975002;28;45578;-66
2022/04/05 05:05:43;;;;;;;;;0.75;0.75;;;;;17.76;33.99;100768.75;4974951;28;45970;-65
2022/04/05 05:08:09;;;;;;;;;1.25;1.00;;;;;17.76;33.73;100766.13;4975349;28;45343;-63
2022/04/05 05:10:34;;;;;;;;;1.00;1.00;;;;;17.76;33.81;100768.75;4975259;28;45277;-63
2022/04/05 05:12:59;;;;;;;;;1.00;1.00;;;;;17.75;33.98;100764.44;4975223;28;45247;-65
2022/04/05 05:15:25;;;;;;;;;0.67;0.67;;;;;17.76;33.79;100766.97;4974563;28;45607;-65
2022/04/05 05:17:55;;;;;;;;;0.75;0.75;;;;;17.76;33.84;100763.50;4974625;28;45419;-65
2022/04/05 05:20:21;;;;;;;;;0.00;0.00;;;;;17.75;33.98;100760.03;4975197;28;45475;-65
2022/04/05 05:22:47;;;;;;;;;1.00;1.00;;;;;17.76;33.91;100758.28;4974517;28;46091;-65
2022/04/05 05:25:12;;;;;;;;;2.00;0.00;;;;;17.76;34.01;100766.13;4973425;28;45383;-65
2022/04/05 05:27:38;;;;;;;;;1.25;1.25;;;;;17.76;33.99;100774.00;4973390;28;45414;-65
2022/04/05 05:30:07;;;;;;;;;0.75;0.75;;;;;17.76;34.03;100764.34;4974909;28;45599;-65
2022/04/05 05:32:47;;;;;;;;;0.50;0.50;;;;;17.77;34.05;100765.22;4974511;28;48567;-64
2022/04/05 05:35:18;;;;;;;;;1.25;0.25;;;;;17.76;33.96;100768.75;4974728;28;45411;-65
2022/04/05 05:37:44;;;;;;;;;1.00;1.00;;;;;17.76;34.03;100766.97;4974681;28;45347;-65
2022/04/05 05:40:11;;;;;;;;;1.00;1.00;;;;;17.76;34.05;100764.34;4974777;28;45580;-65
2022/04/05 05:42:56;;;;;;;;;1.25;1.25;;;;;17.76;34.17;100763.50;4974379;28;45241;-66
2022/04/05 05:45:22;;;;;;;;;1.00;1.00;;;;;17.76;34.12;100763.50;4974508;28;45379;-65
2022/04/05 05:47:48;;;;;;;;;1.00;1.00;;;;;17.75;34.09;100759.19;4973332;28;45767;-66
2022/04/05 05:50:14;;;;;;;;;0.00;0.00;;;;;17.76;34.18;100758.28;4974747;28;45600;-66
2022/04/05 05:52:41;;;;;;;;;1.00;1.00;;;;;17.77;34.31;100765.22;4974213;28;46948;-66
2022/04/05 05:55:08;;;;;;;;;0.75;0.75;;;;;17.76;34.40;100763.50;4974275;28;45392;-64
2022/04/05 05:57:34;;;;;;;;;5.50;2.00;;;;;17.76;34.12;100766.13;4974322;28;45438;-63
2022/04/05 05:59:59;;;;;;;;;0.50;0.50;;;;;17.75;34.09;100767.03;4973629;28;45360;-65
2022/04/05 06:02:25;;;;;;;;;1.00;1.00;;;;;17.76;34.12;100771.38;4974166;28;45376;-65
2022/04/05 06:04:50;;;;;;;;;2.00;2.00;;;;;17.75;34.34;100772.28;4974194;28;45410;-63
2022/04/05 06:07:15;;;;;;;;;1.25;1.25;;;;;17.75;34.27;100777.53;4974415;28;45432;-64
2022/04/05 06:09:40;;;;;;;;;1.75;1.00;;;;;17.74;34.38;100776.69;4974490;28;45220;-66
2022/04/05 06:12:06;;;;;;;;;0.75;0.75;;;;;17.76;34.26;100776.63;4975717;28;45264;-64
2022/04/05 06:14:32;;;;;;;;;1.00;1.00;;;;;17.76;34.39;100777.44;4974645;28;45197;-64
2022/04/05 06:16:57;;;;;;;;;1.00;1.00;;;;;17.76;34.40;100779.25;4974152;28;45378;-64
2022/04/05 06:19:23;;;;;;;;;2.75;1.25;;;;;17.74;34.46;100776.69;4974300;28;45452;-64
2022/04/05 06:21:48;;;;;;;;;1.25;1.25;;;;;17.76;34.39;100785.31;4973984;28;46106;-63
2022/04/05 06:24:13;;;;;;;;;0.75;0.75;;;;;17.75;34.47;100783.63;4973900;28;45388;-65
2022/04/05 06:26:39;;;;;;;;;2.75;1.00;;;;;17.76;34.67;100789.72;4972738;28;45452;-65
2022/04/05 06:29:04;;;;;;;;;1.50;1.00;;;;;17.77;34.48;100799.28;4974298;28;45281;-65
2022/04/05 06:31:29;;;;;;;;;0.00;0.00;;;;;17.76;34.49;100797.59;4974037;28;45911;-63
2022/04/05 06:33:57;;;;;;;;;1.25;1.25;;;;;17.76;34.33;100794.97;4973999;28;45393;-64
2022/04/05 06:36:22;;;;;;;;;1.25;1.00;;;;;17.76;34.42;100801.03;4973860;28;45330;-62
2022/04/05 06:38:48;;;;;;;;;0.00;0.00;;;;;17.76;34.69;100800.22;4973820;28;45392;-66
2022/04/05 06:41:13;;;;;;;;;0.50;0.50;;;;;17.76;34.52;100800.22;4973791;28;45418;-64
2022/04/05 06:43:38;;;;;;;;;1.00;1.00;;;;;17.77;34.69;100809.78;4973647;28;45407;-65
2022/04/05 06:46:04;;;;;;;;;0.50;0.50;;;;;17.77;34.20;100807.16;4973002;28;45725;-65
2022/04/05 06:48:29;;;;;;;;;1.50;1.50;;;;;17.76;34.80;100808.06;4973929;28;45672;-65
2022/04/05 06:50:54;;;;;;;;;1.00;1.00;;;;;17.76;34.59;100803.66;4973624;28;46227;-65
2022/04/05 06:53:20;;;;;;;;;2.00;1.00;;;;;17.78;34.71;100808.88;4972550;28;45332;-65
2022/04/05 06:55:45;;;;;;;;;1.50;0.75;;;;;17.77;34.54;100812.41;4973875;28;45245;-64
2022/04/05 06:58:10;;;;;;;;;2.00;2.00;;;;;17.76;34.58;100801.03;4973846;28;45236;-65
2022/04/05 07:00:37;;;;;;;;;2.00;0.75;;;;;17.76;34.79;100802.84;4973570;28;45448;-65
2022/04/05 07:03:04;;;;;;;;;1.00;1.00;;;;;17.76;34.72;100800.22;4973852;28;45328;-64
2022/04/05 07:05:29;;;;;;;;;1.00;1.00;;;;;17.77;34.69;100797.50;4973687;28;45254;-62
2022/04/05 07:07:55;;;;;;;;;2.00;1.50;;;;;17.78;34.79;100798.38;4972162;28;45260;-64
2022/04/05 07:10:21;;;;;;;;;1.00;1.00;;;;;17.78;34.69;100801.00;4973130;28;45355;-61
2022/04/05 07:12:47;;;;;;;;;1.00;0.00;;;;;17.77;34.81;100800.13;4976073;28;45404;-61
2022/04/05 07:15:13;;;;;;;;;2.00;1.00;;;;;17.78;34.78;100796.59;4975077;28;45431;-62
2022/04/05 07:17:40;;;;;;;;;1.00;1.00;;;;;17.77;34.88;100801.91;4976262;28;45547;-63
2022/04/05 07:20:08;;;;;;;;;3.25;1.00;;;;;17.78;34.82;100788.72;4976510;28;46053;-62
2022/04/05 07:22:34;;;;;;;;;0.00;0.00;;;;;17.78;34.93;100793.97;4976390;28;45843;-63
2022/04/05 07:24:59;;;;;;;;;0.00;0.00;;;;;17.78;34.86;100788.72;4976523;28;45464;-65
2022/04/05 07:27:24;;;;;;;;;1.00;1.00;;;;;17.79;34.86;100786.97;4976540;28;45385;-65
2022/04/05 07:29:50;;;;;;;;;2.00;1.00;;;;;17.79;34.98;100789.59;4976025;28;46402;-62
2022/04/05 07:32:15;;;;;;;;;2.00;0.75;;;;;17.80;35.01;100791.31;4975651;28;52557;-63
2022/04/05 07:34:40;;;;;;;;;2.00;1.00;;;;;17.78;35.00;100787.88;4976213;28;45354;-63
2022/04/05 07:37:09;;;;;;;;;0.00;0.00;;;;;17.80;34.98;100790.44;4975090;28;45520;-63
2022/04/05 07:39:36;;;;;;;;;0.25;0.25;;;;;17.78;35.01;100787.88;4976286;28;45912;-63
2022/04/05 07:42:02;;;;;;;;;1.75;0.50;;;;;17.80;35.12;100793.91;4975899;28;45254;-63
2022/04/05 07:44:27;;;;;;;;;1.00;1.00;;;;;17.82;34.97;100799.09;4976139;28;45256;-62
2022/04/05 07:46:52;;;;;;;;;2.00;1.00;;;;;17.80;35.05;100804.41;4974923;28;45634;-65
2022/04/05 07:49:18;;;;;;;;;1.00;1.00;;;;;17.81;35.05;100805.25;4975793;28;46144;-63
2022/04/05 07:51:43;;;;;;;;;1.25;0.75;;;;;17.79;35.23;100792.22;4974521;28;45928;-63
2022/04/05 07:54:09;;;;;;;;;0.50;0.50;;;;;17.80;35.00;100806.16;4976027;28;45328;-61
2022/04/05 07:56:34;;;;;;;;;1.00;1.00;;;;;17.81;35.02;100800.00;4976454;28;45422;-63
2022/04/05 07:59:01;;;;;;;;;1.00;1.00;;;;;17.81;35.19;100794.75;4975681;28;45951;-64
2022/04/05 08:01:29;;;;;;;;;1.00;1.00;;;;;17.81;35.04;100798.22;4975698;28;45326;-64
2022/04/05 08:03:55;;;;;;;;;0.50;0.50;;;;;17.81;35.07;100795.59;4975761;28;45441;-64
2022/04/05 08:06:21;;;;;;;;;1.00;1.00;;;;;17.81;35.17;100800.84;4974708;28;45392;-64
2022/04/05 08:08:46;;;;;;;;;1.00;1.00;;;;;17.81;35.13;100797.38;4975629;28;46248;-65
2022/04/05 08:11:11;;;;;;;;;0.00;0.00;;;;;17.81;35.27;100800.84;4975676;28;45367;-64
2022/04/05 08:13:37;;;;;;;;;0.00;0.00;;;;;17.82;35.29;100799.09;4974848;28;45411;-64
2022/04/05 08:16:02;;;;;;;;;1.00;1.00;;;;;17.82;35.24;100804.34;4974698;28;45333;-63
2022/04/05 08:18:28;;;;;;;;;1.00;1.00;;;;;17.82;35.33;100805.16;4975116;28;46903;-63
2022/04/05 08:20:54;;;;;;;;;1.75;0.25;;;;;17.82;35.32;100805.16;4974215;28;45303;-65
2022/04/05 08:23:21;;;;;;;;;0.00;0.00;;;;;17.83;35.31;100811.28;4973267;28;45526;-63
2022/04/05 08:25:46;;;;;;;;;1.00;1.00;;;;;17.82;35.38;100810.41;4975697;28;45462;-65
2022/04/05 08:28:11;;;;;;;;;1.00;1.00;;;;;17.82;35.59;100814.81;4975503;28;45891;-62
2022/04/05 08:30:37;;;;;;;;;0.25;0.25;;;;;17.82;35.26;100820.06;4974503;28;45481;-65
2022/04/05 08:33:02;;;;;;;;;0.00;0.00;;;;;17.81;35.32;100819.19;4975606;28;45391;-62
2022/04/05 08:35:27;;;;;;;;;0.75;0.75;;;;;17.83;35.42;100817.38;4975642;28;45326;-65
2022/04/05 08:37:54;;;;;;;;;1.00;1.00;;;;;17.81;35.50;100808.72;4973810;28;50596;-64
2022/04/05 08:40:24;;;;;;;;;0.25;0.25;;;;;17.83;35.48;100811.28;4975416;28;45983;-65
2022/04/05 08:42:52;;;;;;;;;1.00;1.00;;;;;17.83;35.55;100813.91;4975457;28;45306;-65
2022/04/05 08:45:23;;;;;;;;;1.00;1.00;;;;;17.82;35.27;100807.78;4974374;28;45395;-64
2022/04/05 08:47:54;;;;;;;;;1.00;1.00;;;;;17.83;35.59;100801.63;4974958;28;45618;-65
2022/04/05 08:50:27;;;;;;;;;1.00;1.00;;;;;17.83;35.53;100812.13;4975152;28;45513;-63
2022/04/05 08:52:54;;;;;;;;;1.00;1.00;;;;;17.83;35.48;100809.50;4975164;28;45402;-63
2022/04/05 08:55:20;;;;;;;;;2.00;1.00;;;;;17.84;35.61;100813.81;4975410;28;45530;-63
2022/04/05 08:57:46;;;;;;;;;1.00;1.00;;;;;17.84;35.55;100811.19;4973659;28;46070;-64
2022/04/05 09:00:14;;;;;;;;;0.75;0.75;;;;;17.83;35.54;100809.50;4975124;28;45345;-62
2022/04/05 09:02:55;;;;;;;;;0.50;0.50;;;;;17.83;35.56;100809.50;4975529;28;45332;-65
2022/04/05 09:05:43;;;;;;;;;3.00;1.00;;;;;17.84;35.66;100807.75;4974432;28;45307;-63
2022/04/05 09:08:21;;;;;;;;;1.00;1.00;;;;;17.83;35.68;100801.63;4975353;28;46621;-63
2022/04/05 09:11:06;;;;;;;;;1.75;0.25;;;;;17.84;35.65;100805.97;4975016;28;45402;-63
2022/04/05 09:13:32;;;;;;;;;1.00;1.00;;;;;17.84;35.69;100803.34;4981807;28;45498;-66
2022/04/05 09:15:59;;;;;;;;;1.00;1.00;;;;;17.85;35.53;100807.66;4975293;28;45519;-63
2022/04/05 09:18:28;;;;;;;;;0.50;0.50;;;;;17.83;35.76;100801.63;4973249;28;47557;-61
2022/04/05 09:20:54;;;;;;;;;1.00;1.00;;;;;17.84;35.71;100803.34;4974822;28;45902;-62
2022/04/05 09:23:28;;;;;;;;;1.00;1.00;;;;;17.83;35.79;100804.25;4974947;28;45451;-63
2022/04/05 09:25:58;;;;;;;;;3.00;1.00;;;;;17.85;35.75;100804.19;4974926;28;45266;-62
2022/04/05 09:28:48;;;;;;;;;2.75;1.00;;;;;17.84;35.82;100798.09;4973374;28;47260;-63
2022/04/05 09:31:17;;;;;;;;;1.00;1.00;;;;;17.85;35.83;100807.66;4973508;28;45703;-62
2022/04/05 09:34:06;;;;;;;;;2.00;1.00;;;;;17.84;35.79;100811.19;4974556;28;45347;-62
2022/04/05 09:36:37;;;;;;;;;1.00;1.00;;;;;17.84;35.92;100813.81;4973669;28;45285;-64
2022/04/05 09:39:17;;;;;;;;;1.00;1.00;;;;;17.85;35.81;100814.69;4974510;28;45437;-64
2022/04/05 09:41:58;;;;;;;;;2.00;1.00;;;;;17.85;35.95;100818.16;4974858;28;45291;-65
2022/04/05 09:44:26;;;;;;;;;1.00;1.00;;;;;17.86;35.90;100819.84;4974444;28;45386;-65
2022/04/05 09:47:02;;;;;;;;;2.50;2.50;;;;;17.85;35.99;100806.81;4973333;28;45255;-64
2022/04/05 09:49:48;;;;;;;;;0.75;0.75;;;;;17.85;35.92;100812.91;4974358;28;45658;-63
2022/04/05 09:52:30;;;;;;;;;1.00;1.00;;;;;17.86;36.19;100817.22;4974645;28;45185;-65
2022/04/05 09:55:10;;;;;;;;;2.00;2.00;;;;;17.85;36.07;100815.53;4974419;28;45378;-61
2022/04/05 09:57:37;;;;;;;;;1.00;1.00;;;;;17.86;36.13;100805.91;4974572;28;45369;-65
2022/04/05 10:00:13;;;;;;;;;1.00;1.00;;;;;17.86;36.09;100804.13;4974193;28;46143;-65
2022/04/05 10:02:58;;;;;;;;;1.00;1.00;;;;;17.86;36.20;100804.13;4974282;28;45374;-64
2022/04/05 10:05:24;;;;;;;;;0.25;0.25;;;;;17.87;36.07;100811.06;4974482;28;45428;-62
2022/04/05 10:07:49;;;;;;;;;1.00;1.00;;;;;17.86;36.09;100806.75;4974409;28;45616;-63
2022/04/05 10:10:15;;;;;;;;;1.00;0.50;;;;;17.88;36.18;100809.28;4974295;28;46071;-62
2022/04/05 10:12:40;;;;;;;;;2.00;1.00;;;;;17.87;36.19;100803.22;4974404;28;45455;-64
2022/04/05 10:15:06;;;;;;;;;1.00;1.00;;;;;17.87;36.20;100813.69;4974162;28;45564;-62
2022/04/05 10:17:34;;;;;;;;;1.25;1.00;;;;;17.88;36.33;100811.91;4973844;28;45374;-63
2022/04/05 10:20:01;;;;;;;;;2.00;2.00;;;;;17.88;36.12;100807.53;4974033;28;46609;-63
2022/04/05 10:22:26;;;;;;;;;0.00;0.00;;;;;17.88;36.10;100810.16;4972723;28;45392;-63
2022/04/05 10:24:55;;;;;;;;;0.50;0.50;;;;;17.88;36.46;100811.91;4974180;28;45468;-63
2022/04/05 10:27:22;;;;;;;;;2.00;0.00;;;;;17.89;36.18;100813.63;4974184;28;45400;-63
2022/04/05 10:30:02;;;;;;;;;1.00;1.00;;;;;17.88;36.24;100810.16;4973881;28;46702;-62
2022/04/05 10:32:48;;;;;;;;;1.00;1.00;;;;;17.89;36.38;100808.38;4973744;28;45979;-62
2022/04/05 10:35:14;;;;;;;;;1.00;1.00;;;;;17.90;36.27;100805.69;4972992;28;45420;-63
2022/04/05 10:37:41;;;;;;;;;3.00;1.75;;;;;17.89;36.41;100804.00;4973901;28;45520;-63
2022/04/05 10:40:09;;;;;;;;;1.00;1.00;;;;;17.90;36.34;100805.69;4973520;28;45256;-66
2022/04/05 10:42:42;;;;;;;;;2.00;1.00;;;;;17.90;36.34;100807.47;4973756;28;45244;-64
2022/04/05 10:45:12;;;;;;;;;1.75;1.75;;;;;17.90;36.42;100808.31;4972247;28;45300;-64
2022/04/05 10:48:13;;;;;;;;;3.00;1.75;;;;;17.90;36.54;100810.94;4973496;28;45487;-65
2022/04/05 10:50:40;;;;;;;;;1.25;1.25;;;;;17.90;36.46;100810.06;4973538;28;45332;-62
2022/04/05 10:53:20;;;;;;;;;1.25;1.25;;;;;17.89;36.48;100804.00;4973603;28;45458;-63
2022/04/05 10:56:10;;;;;;;;;2.00;2.00;;;;;17.90;36.67;100796.97;4973987;28;45366;-62
2022/04/05 10:59:01;;;;;;;;;1.00;1.00;;;;;17.90;36.66;100803.06;4978289;28;45401;-63
2022/04/05 11:01:43;;;;;;;;;0.00;0.00;;;;;17.89;36.68;100790.88;4973283;28;46373;-63
2022/04/05 11:04:18;;;;;;;;;2.75;1.00;;;;;17.91;36.68;100794.25;4973342;28;45468;-62
2022/04/05 11:06:59;;;;;;;;;2.00;2.00;;;;;17.92;36.51;100801.22;4973814;28;45418;-61
2022/04/05 11:09:25;;;;;;;;;1.00;1.00;;;;;17.89;36.74;100780.41;4973530;28;45249;-62
2022/04/05 11:11:55;;;;;;;;;2.00;2.00;;;;;17.91;36.65;100794.25;4973287;28;45404;-62
2022/04/05 11:14:35;;;;;;;;;2.25;1.00;;;;;17.91;36.95;100799.50;4973202;28;45453;-62
2022/04/05 11:17:05;;;;;;;;;1.25;1.25;;;;;17.92;36.75;100797.75;4972133;28;45273;-62
2022/04/05 11:19:39;;;;;;;;;1.75;1.75;;;;;17.91;36.45;100789.03;4973407;28;45552;-62
2022/04/05 11:22:29;;;;;;;;;1.50;1.50;;;;;17.92;36.78;100784.66;4973127;28;46679;-64
2022/04/05 11:25:06;;;;;;;;;3.50;3.00;;;;;17.92;36.96;100788.09;4973148;28;45801;-63
2022/04/05 11:27:45;;;;;;;;;1.00;1.00;;;;;17.93;37.05;100786.34;4971803;28;45415;-64